sensor_id;sensor_type;location;lat;lon;timestamp;pressure;altitude;pressure_sealevel;temperature;humidity
43071;BME280;36278;47.952;21.714;2023-03-21T00:01:52;100302.97;;;6.86;87.60
43071;BME280;36278;47.952;21.714;2023-03-21T00:04:18;100303.34;;;6.80;86.94
43071;BME280;36278;47.952;21.714;2023-03-21T00:06:43;100304.38;;;6.78;86.77
43071;BME280;36278;47.952;21.714;2023-03-21T00:09:09;100302.59;;;6.78;87.16
43071;BME280;36278;47.952;21.714;2023-03-21T00:11:34;100301.75;;;6.78;86.65
43071;BME280;36278;47.952;21.714;2023-03-21T00:14:00;100307.56;;;6.83;86.52
43071;BME280;36278;47.952;21.714;2023-03-21T00:16:27;100302.13;;;6.86;86.51
43071;BME280;36278;47.952;21.714;2023-03-21T00:18:55;100293.44;;;6.84;86.47
43071;BME280;36278;47.952;21.714;2023-03-21T00:21:22;100294.97;;;6.88;85.81
43071;BME280;36278;47.952;21.714;2023-03-21T00:23:53;100296.19;;;6.96;85.26
43071;BME280;36278;47.952;21.714;2023-03-21T00:26:19;100289.50;;;7.05;85.75
43071;BME280;36278;47.952;21.714;2023-03-21T00:28:46;100294.97;;;7.02;84.74
43071;BME280;36278;47.952;21.714;2023-03-21T00:31:12;100289.50;;;7.05;84.55
43071;BME280;36278;47.952;21.714;2023-03-21T00:33:37;100282.09;;;7.12;84.69
43071;BME280;36278;47.952;21.714;2023-03-21T00:36:04;100281.50;;;7.21;83.64
43071;BME280;36278;47.952;21.714;2023-03-21T00:38:30;100295.78;;;7.31;82.91
43071;BME280;36278;47.952;21.714;2023-03-21T00:40:55;100274.72;;;7.31;82.96
43071;BME280;36278;47.952;21.714;2023-03-21T00:43:21;100278.97;;;7.34;82.11
43071;BME280;36278;47.952;21.714;2023-03-21T00:45:55;100278.03;;;7.35;81.97
43071;BME280;36278;47.952;21.714;2023-03-21T00:48:20;100275.09;;;7.39;81.95
43071;BME280;36278;47.952;21.714;2023-03-21T00:50:46;100280.06;;;7.44;81.12
43071;BME280;36278;47.952;21.714;2023-03-21T00:53:13;100278.75;;;7.51;81.03
43071;BME280;36278;47.952;21.714;2023-03-21T00:55:39;100271.69;;;7.51;80.34
43071;BME280;36278;47.952;21.714;2023-03-21T00:58:05;100271.19;;;7.59;80.89
43071;BME280;36278;47.952;21.714;2023-03-21T01:00:32;100267.63;;;7.60;80.69
43071;BME280;36278;47.952;21.714;2023-03-21T01:02:58;100271.19;;;7.59;80.22
43071;BME280;36278;47.952;21.714;2023-03-21T01:05:31;100262.13;;;7.63;79.96
43071;BME280;36278;47.952;21.714;2023-03-21T01:08:16;100272.41;;;7.68;80.09
43071;BME280;36278;47.952;21.714;2023-03-21T01:10:45;100264.88;;;7.62;79.98
43071;BME280;36278;47.952;21.714;2023-03-21T01:13:13;100267.06;;;7.55;79.80
43071;BME280;36278;47.952;21.714;2023-03-21T01:15:46;100262.84;;;7.38;81.68
43071;BME280;36278;47.952;21.714;2023-03-21T01:18:12;100260.06;;;7.27;81.34
43071;BME280;36278;47.952;21.714;2023-03-21T01:20:42;100254.44;;;7.19;81.91
43071;BME280;36278;47.952;21.714;2023-03-21T01:23:10;100254.69;;;7.14;82.34
43071;BME280;36278;47.952;21.714;2023-03-21T01:25:36;100252.81;;;7.16;82.54
43071;BME280;36278;47.952;21.714;2023-03-21T01:28:01;100248.09;;;7.21;82.31
43071;BME280;36278;47.952;21.714;2023-03-21T01:30:27;100232.97;;;7.25;82.29
43071;BME280;36278;47.952;21.714;2023-03-21T01:32:53;100240.34;;;7.32;81.33
43071;BME280;36278;47.952;21.714;2023-03-21T01:35:18;100237.81;;;7.31;81.07
43071;BME280;36278;47.952;21.714;2023-03-21T01:37:44;100235.50;;;7.26;81.41
43071;BME280;36278;47.952;21.714;2023-03-21T01:40:22;100235.59;;;7.25;80.87
43071;BME280;36278;47.952;21.714;2023-03-21T01:42:48;100233.16;;;7.22;81.09
43071;BME280;36278;47.952;21.714;2023-03-21T01:48:17;100218.03;;;7.11;83.61
43071;BME280;36278;47.952;21.714;2023-03-21T01:50:44;100213.59;;;7.12;82.22
43071;BME280;36278;47.952;21.714;2023-03-21T01:53:10;100211.81;;;7.12;82.00
43071;BME280;36278;47.952;21.714;2023-03-21T01:55:36;100211.59;;;7.15;81.99
43071;BME280;36278;47.952;21.714;2023-03-21T01:58:04;100210.75;;;7.15;82.56
43071;BME280;36278;47.952;21.714;2023-03-21T02:00:31;100221.72;;;7.09;83.12
43071;BME280;36278;47.952;21.714;2023-03-21T02:02:59;100225.25;;;7.08;82.65
43071;BME280;36278;47.952;21.714;2023-03-21T02:07:58;100209.19;;;6.98;83.11
43071;BME280;36278;47.952;21.714;2023-03-21T02:10:24;100213.97;;;7.06;83.75
43071;BME280;36278;47.952;21.714;2023-03-21T02:12:51;100217.56;;;7.05;83.77
43071;BME280;36278;47.952;21.714;2023-03-21T02:15:21;100218.59;;;7.02;83.94
43071;BME280;36278;47.952;21.714;2023-03-21T02:17:58;100218.97;;;6.96;83.00
43071;BME280;36278;47.952;21.714;2023-03-21T02:26:04;100230.47;;;6.95;83.50
43071;BME280;36278;47.952;21.714;2023-03-21T02:28:57;100221.88;;;6.91;84.01
43071;BME280;36278;47.952;21.714;2023-03-21T02:31:57;100220.97;;;6.92;83.77
43071;BME280;36278;47.952;21.714;2023-03-21T02:37:17;100220.47;;;7.00;84.06
43071;BME280;36278;47.952;21.714;2023-03-21T02:42:29;100228.09;;;7.05;84.60
43071;BME280;36278;47.952;21.714;2023-03-21T02:45:01;100222.81;;;7.05;84.76
43071;BME280;36278;47.952;21.714;2023-03-21T02:47:38;100234.66;;;7.12;83.63
43071;BME280;36278;47.952;21.714;2023-03-21T02:52:37;100221.88;;;7.20;84.21
43071;BME280;36278;47.952;21.714;2023-03-21T02:55:07;100229.56;;;7.23;83.60
43071;BME280;36278;47.952;21.714;2023-03-21T02:57:39;100221.88;;;7.20;83.80
43071;BME280;36278;47.952;21.714;2023-03-21T03:00:07;100230.63;;;7.20;83.83
43071;BME280;36278;47.952;21.714;2023-03-21T03:02:37;100224.72;;;7.17;83.13
43071;BME280;36278;47.952;21.714;2023-03-21T03:05:13;100229.66;;;7.21;82.74
43071;BME280;36278;47.952;21.714;2023-03-21T03:07:49;100225.44;;;7.33;82.02
43071;BME280;36278;47.952;21.714;2023-03-21T03:13:20;100231.06;;;7.41;81.79
43071;BME280;36278;47.952;21.714;2023-03-21T03:21:19;100232.06;;;7.39;83.04
43071;BME280;36278;47.952;21.714;2023-03-21T03:23:50;100231.22;;;7.38;83.04
43071;BME280;36278;47.952;21.714;2023-03-21T03:26:22;100221.63;;;7.37;82.30
43071;BME280;36278;47.952;21.714;2023-03-21T03:28:53;100231.91;;;7.42;82.04
43071;BME280;36278;47.952;21.714;2023-03-21T03:31:26;100237.25;;;7.40;82.50
43071;BME280;36278;47.952;21.714;2023-03-21T03:33:55;100239.81;;;7.42;82.54
43071;BME280;36278;47.952;21.714;2023-03-21T03:36:27;100237.81;;;7.45;82.59
43071;BME280;36278;47.952;21.714;2023-03-21T03:38:54;100238.44;;;7.49;80.73
43071;BME280;36278;47.952;21.714;2023-03-21T03:41:25;100241.84;;;7.51;81.66
43071;BME280;36278;47.952;21.714;2023-03-21T03:43:54;100239.84;;;7.54;81.10
43071;BME280;36278;47.952;21.714;2023-03-21T03:46:33;100237.94;;;7.56;82.09
43071;BME280;36278;47.952;21.714;2023-03-21T03:49:24;100229.53;;;7.64;80.20
43071;BME280;36278;47.952;21.714;2023-03-21T03:52:00;100227.84;;;7.63;80.61
43071;BME280;36278;47.952;21.714;2023-03-21T03:54:32;100235.03;;;7.61;80.80
43071;BME280;36278;47.952;21.714;2023-03-21T03:57:02;100246.41;;;7.62;79.74
43071;BME280;36278;47.952;21.714;2023-03-21T03:59:28;100245.28;;;7.66;79.30
43071;BME280;36278;47.952;21.714;2023-03-21T04:01:54;100237.91;;;7.71;80.05
43071;BME280;36278;47.952;21.714;2023-03-21T04:04:20;100243.75;;;7.76;79.95
43071;BME280;36278;47.952;21.714;2023-03-21T04:06:47;100241.72;;;7.79;80.29
43071;BME280;36278;47.952;21.714;2023-03-21T04:09:17;100247.47;;;7.86;80.33
43071;BME280;36278;47.952;21.714;2023-03-21T04:11:43;100240.19;;;7.90;79.78
43071;BME280;36278;47.952;21.714;2023-03-21T04:14:08;100234.91;;;7.90;78.88
43071;BME280;36278;47.952;21.714;2023-03-21T04:16:34;100243.47;;;7.93;79.37
43071;BME280;36278;47.952;21.714;2023-03-21T04:18:59;100238.31;;;7.92;79.40
43071;BME280;36278;47.952;21.714;2023-03-21T04:21:26;100237.47;;;7.91;79.02
43071;BME280;36278;47.952;21.714;2023-03-21T04:23:53;100239.34;;;7.89;80.27
43071;BME280;36278;47.952;21.714;2023-03-21T04:26:22;100232.19;;;7.91;80.71
43071;BME280;36278;47.952;21.714;2023-03-21T04:28:49;100236.69;;;7.89;80.40
43071;BME280;36278;47.952;21.714;2023-03-21T04:31:16;100228.38;;;7.82;81.05
43071;BME280;36278;47.952;21.714;2023-03-21T04:33:45;100248.91;;;7.77;81.17
43071;BME280;36278;47.952;21.714;2023-03-21T04:36:12;100250.91;;;7.74;82.69
43071;BME280;36278;47.952;21.714;2023-03-21T04:38:49;100249.50;;;7.68;81.73
43071;BME280;36278;47.952;21.714;2023-03-21T04:41:14;100244.69;;;7.75;82.47
43071;BME280;36278;47.952;21.714;2023-03-21T04:43:40;100235.13;;;7.86;81.30
43071;BME280;36278;47.952;21.714;2023-03-21T04:46:05;100250.66;;;7.91;80.95
43071;BME280;36278;47.952;21.714;2023-03-21T04:48:31;100251.50;;;7.92;80.15
43071;BME280;36278;47.952;21.714;2023-03-21T04:50:56;100248.75;;;7.93;81.57
43071;BME280;36278;47.952;21.714;2023-03-21T04:53:22;100243.47;;;7.93;81.88
43071;BME280;36278;47.952;21.714;2023-03-21T04:55:47;100236.97;;;7.99;80.73
43071;BME280;36278;47.952;21.714;2023-03-21T04:58:13;100229.28;;;8.08;80.14
43071;BME280;36278;47.952;21.714;2023-03-21T05:00:38;100237.53;;;8.17;79.21
43071;BME280;36278;47.952;21.714;2023-03-21T05:03:05;100235.41;;;8.22;78.56
43071;BME280;36278;47.952;21.714;2023-03-21T05:05:37;100234.66;;;8.20;77.81
43071;BME280;36278;47.952;21.714;2023-03-21T05:08:04;100238.88;;;8.22;77.10
43071;BME280;36278;47.952;21.714;2023-03-21T05:10:30;100241.50;;;8.09;77.65
43071;BME280;36278;47.952;21.714;2023-03-21T05:12:55;100244.38;;;8.06;78.26
43071;BME280;36278;47.952;21.714;2023-03-21T05:15:20;100248.13;;;8.02;77.79
43071;BME280;36278;47.952;21.714;2023-03-21T05:17:46;100253.13;;;8.07;78.50
43071;BME280;36278;47.952;21.714;2023-03-21T05:20:13;100255.34;;;8.13;78.07
43071;BME280;36278;47.952;21.714;2023-03-21T05:22:41;100258.81;;;8.13;77.47
43071;BME280;36278;47.952;21.714;2023-03-21T05:25:08;100248.59;;;8.09;77.70
43071;BME280;36278;47.952;21.714;2023-03-21T05:27:34;100259.53;;;8.03;77.14
43071;BME280;36278;47.952;21.714;2023-03-21T05:30:06;100252.56;;;8.02;78.51
43071;BME280;36278;47.952;21.714;2023-03-21T05:32:32;100271.78;;;8.04;79.72
43071;BME280;36278;47.952;21.714;2023-03-21T05:34:58;100266.72;;;8.01;78.78
43071;BME280;36278;47.952;21.714;2023-03-21T05:37:24;100272.84;;;8.01;78.67
43071;BME280;36278;47.952;21.714;2023-03-21T05:39:49;100265.38;;;8.08;78.08
43071;BME280;36278;47.952;21.714;2023-03-21T05:42:15;100258.84;;;8.26;76.66
43071;BME280;36278;47.952;21.714;2023-03-21T05:44:43;100258.06;;;8.38;76.07
43071;BME280;36278;47.952;21.714;2023-03-21T05:47:09;100257.75;;;8.43;76.33
43071;BME280;36278;47.952;21.714;2023-03-21T05:49:34;100260.50;;;8.54;76.23
43071;BME280;36278;47.952;21.714;2023-03-21T05:51:59;100263.97;;;8.55;76.65
43071;BME280;36278;47.952;21.714;2023-03-21T05:54:25;100268.97;;;8.59;76.68
43071;BME280;36278;47.952;21.714;2023-03-21T05:56:50;100259.66;;;8.41;77.26
43071;BME280;36278;47.952;21.714;2023-03-21T05:59:16;100271.56;;;8.47;76.20
43071;BME280;36278;47.952;21.714;2023-03-21T06:01:41;100275.94;;;8.60;75.39
43071;BME280;36278;47.952;21.714;2023-03-21T06:04:07;100275.53;;;8.66;74.80
43071;BME280;36278;47.952;21.714;2023-03-21T06:06:32;100274.34;;;8.58;76.12
43071;BME280;36278;47.952;21.714;2023-03-21T06:08:58;100278.47;;;8.75;75.42
43071;BME280;36278;47.952;21.714;2023-03-21T06:11:29;100273.41;;;8.84;74.79
43071;BME280;36278;47.952;21.714;2023-03-21T06:13:56;100280.91;;;8.90;73.88
43071;BME280;36278;47.952;21.714;2023-03-21T06:16:21;100268.66;;;8.89;73.65
43071;BME280;36278;47.952;21.714;2023-03-21T06:18:47;100270.88;;;8.83;74.94
43071;BME280;36278;47.952;21.714;2023-03-21T06:21:12;100266.00;;;8.89;74.22
43071;BME280;36278;47.952;21.714;2023-03-21T06:23:38;100263.38;;;8.89;73.48
43071;BME280;36278;47.952;21.714;2023-03-21T06:26:04;100265.69;;;8.94;74.00
43071;BME280;36278;47.952;21.714;2023-03-21T06:28:30;100262.50;;;9.02;73.82
43071;BME280;36278;47.952;21.714;2023-03-21T06:30:55;100260.59;;;9.04;73.10
43071;BME280;36278;47.952;21.714;2023-03-21T06:33:21;100266.53;;;8.94;73.58
43071;BME280;36278;47.952;21.714;2023-03-21T06:35:54;100264.41;;;8.99;73.58
43071;BME280;36278;47.952;21.714;2023-03-21T06:38:20;100271.47;;;9.12;72.57
43071;BME280;36278;47.952;21.714;2023-03-21T06:40:46;100268.63;;;9.15;72.98
43071;BME280;36278;47.952;21.714;2023-03-21T06:43:12;100258.78;;;9.17;72.17
43071;BME280;36278;47.952;21.714;2023-03-21T06:45:38;100272.84;;;9.30;72.16
43071;BME280;36278;47.952;21.714;2023-03-21T06:48:03;100270.50;;;9.38;71.82
43071;BME280;36278;47.952;21.714;2023-03-21T06:50:29;100273.50;;;9.58;71.68
43071;BME280;36278;47.952;21.714;2023-03-21T06:52:54;100272.53;;;9.82;69.94
43071;BME280;36278;47.952;21.714;2023-03-21T06:55:21;100271.25;;;9.88;70.46
43071;BME280;36278;47.952;21.714;2023-03-21T06:57:54;100274.66;;;10.01;69.50
43071;BME280;36278;47.952;21.714;2023-03-21T07:00:21;100275.81;;;10.10;69.04
43071;BME280;36278;47.952;21.714;2023-03-21T07:02:47;100269.19;;;10.28;68.71
43071;BME280;36278;47.952;21.714;2023-03-21T07:05:13;100271.16;;;10.49;67.74
43071;BME280;36278;47.952;21.714;2023-03-21T07:07:39;100273.25;;;10.68;65.88
43071;BME280;36278;47.952;21.714;2023-03-21T07:10:06;100263.00;;;10.74;64.72
43071;BME280;36278;47.952;21.714;2023-03-21T07:12:32;100271.00;;;10.85;63.96
43071;BME280;36278;47.952;21.714;2023-03-21T07:15:02;100265.69;;;10.85;64.22
43071;BME280;36278;47.952;21.714;2023-03-21T07:17:29;100271.59;;;11.00;64.25
43071;BME280;36278;47.952;21.714;2023-03-21T07:19:54;100271.34;;;11.14;63.11
43071;BME280;36278;47.952;21.714;2023-03-21T07:22:20;100272.91;;;11.28;62.64
43071;BME280;36278;47.952;21.714;2023-03-21T07:24:45;100271.22;;;11.38;63.55
43071;BME280;36278;47.952;21.714;2023-03-21T07:27:17;100271.09;;;11.40;62.94
43071;BME280;36278;47.952;21.714;2023-03-21T07:29:43;100270.38;;;11.38;63.56
43071;BME280;36278;47.952;21.714;2023-03-21T07:32:10;100281.59;;;11.41;63.33
43071;BME280;36278;47.952;21.714;2023-03-21T07:34:35;100284.72;;;11.58;62.08
43071;BME280;36278;47.952;21.714;2023-03-21T07:37:02;100282.41;;;11.53;61.74
43071;BME280;36278;47.952;21.714;2023-03-21T07:39:28;100280.34;;;11.68;62.14
43071;BME280;36278;47.952;21.714;2023-03-21T07:41:54;100277.19;;;11.63;62.46
43071;BME280;36278;47.952;21.714;2023-03-21T07:44:23;100275.84;;;11.79;62.29
43071;BME280;36278;47.952;21.714;2023-03-21T07:46:49;100281.59;;;11.96;62.32
43071;BME280;36278;47.952;21.714;2023-03-21T07:49:15;100277.47;;;12.03;62.35
43071;BME280;36278;47.952;21.714;2023-03-21T07:51:41;100286.75;;;12.09;62.27
43071;BME280;36278;47.952;21.714;2023-03-21T07:54:06;100282.16;;;12.11;62.47
43071;BME280;36278;47.952;21.714;2023-03-21T07:56:32;100283.47;;;12.16;62.07
43071;BME280;36278;47.952;21.714;2023-03-21T07:58:57;100286.69;;;12.31;60.96
43071;BME280;36278;47.952;21.714;2023-03-21T08:01:24;100282.66;;;12.37;60.61
43071;BME280;36278;47.952;21.714;2023-03-21T08:03:51;100279.53;;;12.52;60.53
43071;BME280;36278;47.952;21.714;2023-03-21T08:06:21;100291.41;;;12.69;60.45
43071;BME280;36278;47.952;21.714;2023-03-21T08:08:47;100283.16;;;12.93;59.72
43071;BME280;36278;47.952;21.714;2023-03-21T08:11:13;100285.09;;;13.12;58.46
43071;BME280;36278;47.952;21.714;2023-03-21T08:13:39;100293.34;;;13.18;59.17
43071;BME280;36278;47.952;21.714;2023-03-21T08:16:06;100285.75;;;13.35;58.31
43071;BME280;36278;47.952;21.714;2023-03-21T08:18:32;100285.34;;;13.39;59.50
43071;BME280;36278;47.952;21.714;2023-03-21T08:20:58;100284.09;;;13.43;57.74
43071;BME280;36278;47.952;21.714;2023-03-21T08:23:24;100273.63;;;13.52;57.69
43071;BME280;36278;47.952;21.714;2023-03-21T08:25:54;100266.91;;;13.57;57.73
43071;BME280;36278;47.952;21.714;2023-03-21T08:28:20;100270.44;;;13.67;57.52
43071;BME280;36278;47.952;21.714;2023-03-21T08:30:47;100275.22;;;13.83;57.25
43071;BME280;36278;47.952;21.714;2023-03-21T08:33:13;100288.97;;;13.88;57.76
43071;BME280;36278;47.952;21.714;2023-03-21T08:35:39;100282.28;;;13.94;57.47
43071;BME280;36278;47.952;21.714;2023-03-21T08:38:05;100276.94;;;14.03;58.11
43071;BME280;36278;47.952;21.714;2023-03-21T08:40:31;100281.72;;;14.29;57.79
43071;BME280;36278;47.952;21.714;2023-03-21T08:42:57;100284.50;;;14.37;57.45
43071;BME280;36278;47.952;21.714;2023-03-21T08:45:23;100275.56;;;14.48;56.97
43071;BME280;36278;47.952;21.714;2023-03-21T08:47:49;100284.41;;;14.58;57.40
43071;BME280;36278;47.952;21.714;2023-03-21T08:50:18;100277.59;;;14.73;57.29
43071;BME280;36278;47.952;21.714;2023-03-21T08:52:44;100279.41;;;14.92;57.38
43071;BME280;36278;47.952;21.714;2023-03-21T08:55:10;100274.47;;;14.97;58.38
43071;BME280;36278;47.952;21.714;2023-03-21T08:57:36;100281.56;;;15.16;57.38
43071;BME280;36278;47.952;21.714;2023-03-21T09:00:03;100271.69;;;15.26;57.14
43071;BME280;36278;47.952;21.714;2023-03-21T09:02:43;100258.66;;;15.23;58.02
43071;BME280;36278;47.952;21.714;2023-03-21T09:05:10;100275.56;;;15.41;58.03
43071;BME280;36278;47.952;21.714;2023-03-21T09:07:40;100269.16;;;15.52;57.18
43071;BME280;36278;47.952;21.714;2023-03-21T09:10:09;100265.47;;;15.35;57.72
43071;BME280;36278;47.952;21.714;2023-03-21T09:12:36;100266.41;;;15.44;57.15
43071;BME280;36278;47.952;21.714;2023-03-21T09:15:02;100266.19;;;15.28;57.99
43071;BME280;36278;47.952;21.714;2023-03-21T09:17:28;100269.34;;;15.23;58.52
43071;BME280;36278;47.952;21.714;2023-03-21T09:19:56;100262.44;;;15.21;58.54
43071;BME280;36278;47.952;21.714;2023-03-21T09:22:23;100260.66;;;15.11;58.89
43071;BME280;36278;47.952;21.714;2023-03-21T09:24:49;100258.19;;;15.00;59.26
43071;BME280;36278;47.952;21.714;2023-03-21T09:27:16;100259.28;;;14.98;59.14
43071;BME280;36278;47.952;21.714;2023-03-21T09:29:49;100258.06;;;14.92;60.39
43071;BME280;36278;47.952;21.714;2023-03-21T09:32:15;100245.94;;;14.98;61.86
43071;BME280;36278;47.952;21.714;2023-03-21T09:34:43;100256.19;;;15.02;60.68
43071;BME280;36278;47.952;21.714;2023-03-21T09:37:09;100259.16;;;14.99;62.19
43071;BME280;36278;47.952;21.714;2023-03-21T09:39:41;100260.13;;;14.98;62.28
43071;BME280;36278;47.952;21.714;2023-03-21T09:47:47;100259.78;;;14.74;62.66
43071;BME280;36278;47.952;21.714;2023-03-21T09:50:33;100255.31;;;14.74;61.79
43071;BME280;36278;47.952;21.714;2023-03-21T09:53:36;100250.66;;;14.76;61.32
43071;BME280;36278;47.952;21.714;2023-03-21T09:55:55;100246.72;;;14.80;60.51
43071;BME280;36278;47.952;21.714;2023-03-21T09:58:25;100253.00;;;14.99;61.37
43071;BME280;36278;47.952;21.714;2023-03-21T10:01:08;100250.75;;;15.31;60.39
43071;BME280;36278;47.952;21.714;2023-03-21T10:03:47;100250.41;;;15.89;58.56
43071;BME280;36278;47.952;21.714;2023-03-21T10:06:15;100261.25;;;16.23;56.37
43071;BME280;36278;47.952;21.714;2023-03-21T10:08:46;100254.72;;;16.44;57.04
43071;BME280;36278;47.952;21.714;2023-03-21T10:11:23;100254.16;;;16.58;55.80
43071;BME280;36278;47.952;21.714;2023-03-21T10:14:12;100256.81;;;16.76;54.50
43071;BME280;36278;47.952;21.714;2023-03-21T10:16:42;100242.78;;;16.56;55.37
43071;BME280;36278;47.952;21.714;2023-03-21T10:19:12;100249.28;;;16.97;53.35
43071;BME280;36278;47.952;21.714;2023-03-21T10:21:39;100237.72;;;16.97;52.46
43071;BME280;36278;47.952;21.714;2023-03-21T10:24:22;100248.28;;;16.98;53.10
43071;BME280;36278;47.952;21.714;2023-03-21T10:26:49;100246.69;;;17.14;53.49
43071;BME280;36278;47.952;21.714;2023-03-21T10:29:17;100239.47;;;17.56;51.63
43071;BME280;36278;47.952;21.714;2023-03-21T10:31:47;100240.50;;;17.63;51.44
43071;BME280;36278;47.952;21.714;2023-03-21T10:34:22;100238.09;;;17.36;52.72
43071;BME280;36278;47.952;21.714;2023-03-21T10:36:52;100241.56;;;17.28;51.94
43071;BME280;36278;47.952;21.714;2023-03-21T10:39:33;100242.91;;;17.32;51.53
43071;BME280;36278;47.952;21.714;2023-03-21T10:41:59;100242.22;;;17.30;52.56
43071;BME280;36278;47.952;21.714;2023-03-21T10:44:33;100240.44;;;17.47;51.62
43071;BME280;36278;47.952;21.714;2023-03-21T10:47:06;100245.84;;;17.55;51.49
43071;BME280;36278;47.952;21.714;2023-03-21T10:49:32;100240.91;;;17.77;50.56
43071;BME280;36278;47.952;21.714;2023-03-21T10:52:01;100236.06;;;17.88;50.11
43071;BME280;36278;47.952;21.714;2023-03-21T10:54:30;100231.72;;;18.12;49.59
43071;BME280;36278;47.952;21.714;2023-03-21T10:57:01;100231.25;;;18.41;48.57
43071;BME280;36278;47.952;21.714;2023-03-21T10:59:35;100229.06;;;18.20;48.75
43071;BME280;36278;47.952;21.714;2023-03-21T11:02:05;100225.00;;;18.24;48.88
43071;BME280;36278;47.952;21.714;2023-03-21T11:04:31;100227.03;;;18.38;49.17
43071;BME280;36278;47.952;21.714;2023-03-21T11:07:00;100221.84;;;18.37;48.84
43071;BME280;36278;47.952;21.714;2023-03-21T11:09:46;100219.50;;;18.09;49.97
43071;BME280;36278;47.952;21.714;2023-03-21T11:12:14;100216.47;;;18.29;48.91
43071;BME280;36278;47.952;21.714;2023-03-21T11:14:47;100210.78;;;18.24;48.90
43071;BME280;36278;47.952;21.714;2023-03-21T11:19:49;100214.78;;;18.52;47.43
43071;BME280;36278;47.952;21.714;2023-03-21T11:22:15;100209.72;;;18.90;45.11
43071;BME280;36278;47.952;21.714;2023-03-21T11:24:48;100204.13;;;19.08;45.74
43071;BME280;36278;47.952;21.714;2023-03-21T11:27:15;100192.19;;;19.41;43.83
43071;BME280;36278;47.952;21.714;2023-03-21T11:29:46;100194.34;;;19.46;43.74
43071;BME280;36278;47.952;21.714;2023-03-21T11:32:24;100202.72;;;19.59;44.12
43071;BME280;36278;47.952;21.714;2023-03-21T11:34:56;100186.41;;;19.21;41.03
43071;BME280;36278;47.952;21.714;2023-03-21T11:37:46;100199.34;;;18.79;41.57
43071;BME280;36278;47.952;21.714;2023-03-21T11:40:30;100198.72;;;19.16;43.12
43071;BME280;36278;47.952;21.714;2023-03-21T11:42:58;100186.59;;;19.20;42.34
43071;BME280;36278;47.952;21.714;2023-03-21T11:45:28;100185.44;;;19.45;43.89
43071;BME280;36278;47.952;21.714;2023-03-21T11:47:56;100178.41;;;19.98;42.58
43071;BME280;36278;47.952;21.714;2023-03-21T11:50:34;100169.56;;;20.12;42.11
43071;BME280;36278;47.952;21.714;2023-03-21T12:01:37;100163.38;;;20.41;39.89
43071;BME280;36278;47.952;21.714;2023-03-21T12:09:28;100158.41;;;19.78;40.41
43071;BME280;36278;47.952;21.714;2023-03-21T12:23:10;100132.50;;;23.09;35.66
43071;BME280;36278;47.952;21.714;2023-03-21T12:25:49;100132.09;;;23.12;34.69
43071;BME280;36278;47.952;21.714;2023-03-21T12:28:42;100136.66;;;22.70;35.23
43071;BME280;36278;47.952;21.714;2023-03-21T12:34:37;100129.84;;;22.46;35.51
43071;BME280;36278;47.952;21.714;2023-03-21T12:39:45;100127.00;;;21.77;36.61
43071;BME280;36278;47.952;21.714;2023-03-21T12:45:11;100118.75;;;22.28;35.61
43071;BME280;36278;47.952;21.714;2023-03-21T12:47:35;100114.66;;;23.21;34.69
43071;BME280;36278;47.952;21.714;2023-03-21T12:50:18;100113.56;;;23.76;34.04
43071;BME280;36278;47.952;21.714;2023-03-21T12:52:50;100104.41;;;23.97;33.37
43071;BME280;36278;47.952;21.714;2023-03-21T12:55:32;100101.94;;;23.96;33.12
43071;BME280;36278;47.952;21.714;2023-03-21T12:58:24;100100.25;;;23.75;33.84
43071;BME280;36278;47.952;21.714;2023-03-21T13:00:55;100096.28;;;23.84;33.81
43071;BME280;36278;47.952;21.714;2023-03-21T13:05:57;100087.97;;;22.91;35.73
43071;BME280;36278;47.952;21.714;2023-03-21T13:10:54;100079.81;;;22.44;36.22
43071;BME280;36278;47.952;21.714;2023-03-21T13:13:41;100076.28;;;22.08;37.01
43071;BME280;36278;47.952;21.714;2023-03-21T13:21:45;100088.53;;;20.30;40.71
43071;BME280;36278;47.952;21.714;2023-03-21T13:29:57;100079.97;;;19.51;42.48
43071;BME280;36278;47.952;21.714;2023-03-21T13:32:38;100079.50;;;19.25;44.35
43071;BME280;36278;47.952;21.714;2023-03-21T13:37:49;100089.13;;;18.25;48.80
43071;BME280;36278;47.952;21.714;2023-03-21T13:40:42;100093.16;;;17.63;51.61
43071;BME280;36278;47.952;21.714;2023-03-21T13:43:34;100080.28;;;17.91;51.32
43071;BME280;36278;47.952;21.714;2023-03-21T13:46:12;100084.47;;;18.02;50.19
43071;BME280;36278;47.952;21.714;2023-03-21T13:54:20;100066.63;;;18.81;49.22
43071;BME280;36278;47.952;21.714;2023-03-21T13:59:43;100073.09;;;18.56;49.25
43071;BME280;36278;47.952;21.714;2023-03-21T14:04:39;100065.69;;;18.10;50.55
43071;BME280;36278;47.952;21.714;2023-03-21T14:07:10;100072.75;;;18.59;49.95
43071;BME280;36278;47.952;21.714;2023-03-21T14:09:37;100069.03;;;19.07;49.24
43071;BME280;36278;47.952;21.714;2023-03-21T14:12:08;100063.44;;;19.63;48.44
43071;BME280;36278;47.952;21.714;2023-03-21T14:14:42;100054.19;;;20.17;47.87
43071;BME280;36278;47.952;21.714;2023-03-21T14:17:24;100049.38;;;20.72;45.36
43071;BME280;36278;47.952;21.714;2023-03-21T14:19:52;100055.47;;;21.17;44.27
43071;BME280;36278;47.952;21.714;2023-03-21T14:22:18;100053.59;;;21.32;43.16
43071;BME280;36278;47.952;21.714;2023-03-21T14:24:58;100060.00;;;21.31;42.88
43071;BME280;36278;47.952;21.714;2023-03-21T14:27:28;100060.06;;;21.38;42.53
43071;BME280;36278;47.952;21.714;2023-03-21T14:29:55;100060.50;;;21.84;40.79
43071;BME280;36278;47.952;21.714;2023-03-21T14:32:24;100056.97;;;21.62;40.42
43071;BME280;36278;47.952;21.714;2023-03-21T14:34:53;100057.38;;;21.38;41.08
43071;BME280;36278;47.952;21.714;2023-03-21T14:40:27;100067.53;;;21.21;41.57